Penicuik, United Kingdom

3:20 AM GMT on February 09, 2016 (GMT +0000)
IMIDLOTH8 | | Change Station
CLOSE
Current Station
Personal Weather Station
Location: Penicuik, MIDLOTHIAN
Elevation: 719 ft
Nearby Weather Stations

Elev 719 ft 55.83 °N, 3.24 °W | Updated 285 days ago

Rain
Rain
40 °F
Feels Like 30 °F
N
17
Wind Variable Wind from WSW
Gusts 24 mph

Today
High -- | Low -- °F
--% Chance of Precip.
Yesterday
High -- | Low -- °F
Precip. -- in
Pressure 28.85 in
Visibility 6.2 miles
Clouds Mostly Cloudy 1600 ft
Mostly Cloudy 2900 ft
Windchill 30 °F
Dew Point 37 °F
Humidity 88%
Rainfall in
Snow Depth Not available.
7:52 AM 5:02 PM
New Moon, 0% visible
METAR EGPH 090250Z AUTO 23014KT 9999 -RA BKN016/// BKN029/// //////TCU 05/03 Q0977
Pressure 28.85 in
Visibility 6.2 miles
Clouds Mostly Cloudy 1600 ft
Mostly Cloudy 2900 ft
Windchill 30 °F
Dew Point 37 °F
Humidity 88%
Rainfall in
Snow Depth Not available.
7:52 AM 5:02 PM
New Moon, 0% visible
METAR EGPH 090250Z AUTO 23014KT 9999 -RA BKN016/// BKN029/// //////TCU 05/03 Q0977

10-Day Weather Forecast

Almanac

Astronomy

Feb. 09, 2016 Rise Set
Actual Time
Civil Twilight
Nautical Twilight
Astronomical Twilight
Moon
Length of Visible Light
Length of Day
Tomorrow will be .
, % of the Moon is Illuminated

Today's Extremes

Country Highs Country Lows

Community

WunderPhotos

Upload Photos

1,891,527 photos uploaded!

WunderBlog® & News

Nearby

Air Quality

  Air Quality AQ Index Pollutant
Not available.

Snow Depth

Station Depth Elevation

Earthquake Activity

City Distance Mag. Time & Date
Minimum magnitude displayed is 2.5.

Coastal Water Temperatures

Place Temperature

Stations

Nearby Weather Stations

Station Location Temp. Windchill Dew Point Humidity Wind Precip. Elev Updated Type